sensor_id;sensor_type;location;lat;lon;timestamp;pressure;altitude;pressure_sealevel;temperature;humidity
43480;BME280;29067;35.492;-97.520;2022-10-01T00:01:12;97228.19;;;28.14;20.38
43480;BME280;29067;35.492;-97.520;2022-10-01T00:03:40;97233.57;;;27.28;21.49
43480;BME280;29067;35.492;-97.520;2022-10-01T00:06:11;97228.66;;;27.54;21.79
43480;BME280;29067;35.492;-97.520;2022-10-01T00:08:40;97227.08;;;27.38;21.14
43480;BME280;29067;35.492;-97.520;2022-10-01T00:11:11;97226.98;;;27.34;20.79
43480;BME280;29067;35.492;-97.520;2022-10-01T00:13:40;97230.18;;;27.65;21.47
43480;BME280;29067;35.492;-97.520;2022-10-01T00:16:10;97229.90;;;27.04;20.90
43480;BME280;29067;35.492;-97.520;2022-10-01T00:18:41;97233.27;;;26.74;21.15
43480;BME280;29067;35.492;-97.520;2022-10-01T00:21:11;97234.49;;;27.07;21.53
43480;BME280;29067;35.492;-97.520;2022-10-01T00:23:40;97233.01;;;27.18;21.74
43480;BME280;29067;35.492;-97.520;2022-10-01T00:26:10;97234.54;;;26.32;22.60
43480;BME280;29067;35.492;-97.520;2022-10-01T00:28:38;97234.28;;;27.14;21.55
43480;BME280;29067;35.492;-97.520;2022-10-01T00:31:06;97234.95;;;27.30;21.83
43480;BME280;29067;35.492;-97.520;2022-10-01T00:33:34;97236.73;;;26.98;22.16
43480;BME280;29067;35.492;-97.520;2022-10-01T00:36:03;97237.57;;;25.51;22.86
43480;BME280;29067;35.492;-97.520;2022-10-01T00:38:31;97236.97;;;26.54;22.39
43480;BME280;29067;35.492;-97.520;2022-10-01T00:40:59;97236.80;;;26.50;21.93
43480;BME280;29067;35.492;-97.520;2022-10-01T00:43:29;97237.49;;;26.98;22.22
43480;BME280;29067;35.492;-97.520;2022-10-01T00:46:01;97236.66;;;26.69;22.10
43480;BME280;29067;35.492;-97.520;2022-10-01T00:48:35;97237.37;;;26.34;21.51
43480;BME280;29067;35.492;-97.520;2022-10-01T00:51:06;97239.26;;;27.22;22.01
43480;BME280;29067;35.492;-97.520;2022-10-01T00:53:34;97240.83;;;25.84;21.96
43480;BME280;29067;35.492;-97.520;2022-10-01T00:56:02;97244.01;;;25.79;22.45
43480;BME280;29067;35.492;-97.520;2022-10-01T00:58:30;97245.18;;;26.10;22.84
43480;BME280;29067;35.492;-97.520;2022-10-01T01:00:57;97245.82;;;26.64;22.52
43480;BME280;29067;35.492;-97.520;2022-10-01T01:03:25;97250.38;;;26.93;22.57
43480;BME280;29067;35.492;-97.520;2022-10-01T01:05:54;97247.10;;;26.52;22.30
43480;BME280;29067;35.492;-97.520;2022-10-01T01:08:22;97246.92;;;27.07;22.48
43480;BME280;29067;35.492;-97.520;2022-10-01T01:10:54;97246.61;;;25.55;23.00
43480;BME280;29067;35.492;-97.520;2022-10-01T01:13:32;97247.67;;;26.01;23.27
43480;BME280;29067;35.492;-97.520;2022-10-01T01:16:07;97245.28;;;25.85;23.21
43480;BME280;29067;35.492;-97.520;2022-10-01T01:18:41;97249.29;;;26.10;23.46
43480;BME280;29067;35.492;-97.520;2022-10-01T01:21:20;97251.16;;;25.77;23.49
43480;BME280;29067;35.492;-97.520;2022-10-01T01:24:56;97255.28;;;25.17;23.48
43480;BME280;29067;35.492;-97.520;2022-10-01T01:27:34;97257.13;;;25.54;23.68
43480;BME280;29067;35.492;-97.520;2022-10-01T01:30:06;97260.66;;;25.19;23.41
43480;BME280;29067;35.492;-97.520;2022-10-01T01:32:43;97261.32;;;24.80;23.68
43480;BME280;29067;35.492;-97.520;2022-10-01T01:35:17;97263.47;;;25.34;23.57
43480;BME280;29067;35.492;-97.520;2022-10-01T01:37:51;97263.67;;;24.70;23.77
43480;BME280;29067;35.492;-97.520;2022-10-01T01:40:21;97266.38;;;24.12;23.97
43480;BME280;29067;35.492;-97.520;2022-10-01T01:42:52;97264.31;;;24.76;23.39
43480;BME280;29067;35.492;-97.520;2022-10-01T01:45:25;97263.94;;;25.28;23.62
43480;BME280;29067;35.492;-97.520;2022-10-01T01:47:55;97268.73;;;24.33;24.40
43480;BME280;29067;35.492;-97.520;2022-10-01T01:50:26;97266.81;;;24.95;23.96
43480;BME280;29067;35.492;-97.520;2022-10-01T01:52:55;97264.48;;;25.12;23.53
43480;BME280;29067;35.492;-97.520;2022-10-01T01:55:26;97266.85;;;24.82;24.54
43480;BME280;29067;35.492;-97.520;2022-10-01T01:57:56;97268.06;;;24.69;23.93
43480;BME280;29067;35.492;-97.520;2022-10-01T02:00:24;97269.10;;;24.76;23.81
43480;BME280;29067;35.492;-97.520;2022-10-01T02:02:53;97267.49;;;24.46;23.88
43480;BME280;29067;35.492;-97.520;2022-10-01T02:05:26;97271.64;;;24.35;24.41
43480;BME280;29067;35.492;-97.520;2022-10-01T02:08:29;97272.07;;;24.01;24.51
43480;BME280;29067;35.492;-97.520;2022-10-01T02:11:15;97275.60;;;23.54;24.25
43480;BME280;29067;35.492;-97.520;2022-10-01T02:13:53;97276.75;;;24.63;24.07
43480;BME280;29067;35.492;-97.520;2022-10-01T02:16:30;97277.12;;;23.03;24.52
43480;BME280;29067;35.492;-97.520;2022-10-01T02:19:05;97282.09;;;21.81;25.20
43480;BME280;29067;35.492;-97.520;2022-10-01T02:21:40;97281.81;;;23.10;24.74
43480;BME280;29067;35.492;-97.520;2022-10-01T02:24:17;97281.93;;;23.67;23.94
43480;BME280;29067;35.492;-97.520;2022-10-01T02:26:48;97281.99;;;23.51;24.33
43480;BME280;29067;35.492;-97.520;2022-10-01T02:29:20;97283.04;;;23.45;23.66
43480;BME280;29067;35.492;-97.520;2022-10-01T02:31:49;97285.43;;;23.37;24.08
43480;BME280;29067;35.492;-97.520;2022-10-01T02:34:20;97287.70;;;24.18;23.37
43480;BME280;29067;35.492;-97.520;2022-10-01T02:36:49;97287.78;;;23.59;23.42
43480;BME280;29067;35.492;-97.520;2022-10-01T02:39:19;97294.07;;;22.71;23.98
43480;BME280;29067;35.492;-97.520;2022-10-01T02:41:49;97296.31;;;22.62;24.25
43480;BME280;29067;35.492;-97.520;2022-10-01T02:44:22;97299.16;;;21.86;24.74
43480;BME280;29067;35.492;-97.520;2022-10-01T02:46:55;97300.55;;;21.98;24.36
43480;BME280;29067;35.492;-97.520;2022-10-01T02:49:24;97299.73;;;21.11;25.01
43480;BME280;29067;35.492;-97.520;2022-10-01T02:51:58;97298.91;;;22.51;24.25
43480;BME280;29067;35.492;-97.520;2022-10-01T02:54:32;97301.09;;;23.02;24.47
43480;BME280;29067;35.492;-97.520;2022-10-01T02:57:02;97301.16;;;23.30;23.83
43480;BME280;29067;35.492;-97.520;2022-10-01T02:59:30;97304.65;;;21.52;24.51
43480;BME280;29067;35.492;-97.520;2022-10-01T03:01:58;97307.15;;;22.55;24.00
43480;BME280;29067;35.492;-97.520;2022-10-01T03:04:26;97309.36;;;23.25;23.83
43480;BME280;29067;35.492;-97.520;2022-10-01T03:06:54;97311.51;;;22.53;24.25
43480;BME280;29067;35.492;-97.520;2022-10-01T03:09:21;97313.70;;;19.41;24.93
43480;BME280;29067;35.492;-97.520;2022-10-01T03:11:49;97314.56;;;21.97;24.25
43480;BME280;29067;35.492;-97.520;2022-10-01T03:14:17;97316.16;;;22.81;23.82
43480;BME280;29067;35.492;-97.520;2022-10-01T03:16:44;97316.85;;;22.65;23.98
43480;BME280;29067;35.492;-97.520;2022-10-01T03:19:12;97321.43;;;22.94;23.98
43480;BME280;29067;35.492;-97.520;2022-10-01T03:21:40;97324.62;;;21.68;24.33
43480;BME280;29067;35.492;-97.520;2022-10-01T03:24:07;97323.38;;;21.07;25.52
43480;BME280;29067;35.492;-97.520;2022-10-01T03:26:35;97331.79;;;22.17;24.69
43480;BME280;29067;35.492;-97.520;2022-10-01T03:29:04;97332.69;;;21.19;24.65
43480;BME280;29067;35.492;-97.520;2022-10-01T03:31:32;97327.92;;;20.94;24.18
43480;BME280;29067;35.492;-97.520;2022-10-01T03:33:59;97328.89;;;20.96;24.44
43480;BME280;29067;35.492;-97.520;2022-10-01T03:36:27;97328.79;;;21.45;23.94
43480;BME280;29067;35.492;-97.520;2022-10-01T03:38:55;97327.46;;;21.90;24.08
43480;BME280;29067;35.492;-97.520;2022-10-01T03:41:23;97325.18;;;22.47;23.51
43480;BME280;29067;35.492;-97.520;2022-10-01T03:43:51;97331.63;;;22.16;23.27
43480;BME280;29067;35.492;-97.520;2022-10-01T03:46:19;97332.62;;;22.24;23.34
43480;BME280;29067;35.492;-97.520;2022-10-01T03:48:47;97332.71;;;21.60;23.35
43480;BME280;29067;35.492;-97.520;2022-10-01T03:51:15;97333.76;;;21.70;23.32
43480;BME280;29067;35.492;-97.520;2022-10-01T03:53:43;97331.96;;;21.37;22.92
43480;BME280;29067;35.492;-97.520;2022-10-01T03:56:11;97333.96;;;21.03;23.27
43480;BME280;29067;35.492;-97.520;2022-10-01T03:58:39;97331.85;;;21.95;22.96
43480;BME280;29067;35.492;-97.520;2022-10-01T04:01:06;97330.87;;;21.94;23.20
43480;BME280;29067;35.492;-97.520;2022-10-01T04:03:35;97325.37;;;21.47;23.16
43480;BME280;29067;35.492;-97.520;2022-10-01T04:06:02;97326.92;;;21.40;23.30
43480;BME280;29067;35.492;-97.520;2022-10-01T04:08:30;97325.18;;;21.21;22.77
43480;BME280;29067;35.492;-97.520;2022-10-01T04:10:58;97327.02;;;21.06;23.29
43480;BME280;29067;35.492;-97.520;2022-10-01T04:13:25;97326.83;;;20.82;23.34
43480;BME280;29067;35.492;-97.520;2022-10-01T04:15:53;97327.15;;;21.65;23.15
43480;BME280;29067;35.492;-97.520;2022-10-01T04:18:21;97325.77;;;21.86;22.68
43480;BME280;29067;35.492;-97.520;2022-10-01T04:20:49;97321.59;;;20.83;23.24
43480;BME280;29067;35.492;-97.520;2022-10-01T04:23:17;97326.01;;;20.80;23.39
43480;BME280;29067;35.492;-97.520;2022-10-01T04:25:44;97327.59;;;20.80;23.14
43480;BME280;29067;35.492;-97.520;2022-10-01T04:28:13;97331.87;;;20.80;23.41
43480;BME280;29067;35.492;-97.520;2022-10-01T04:30:43;97329.72;;;21.12;22.94
43480;BME280;29067;35.492;-97.520;2022-10-01T04:33:13;97330.99;;;20.65;23.08
43480;BME280;29067;35.492;-97.520;2022-10-01T04:35:41;97336.53;;;19.55;23.79
43480;BME280;29067;35.492;-97.520;2022-10-01T04:38:14;97335.75;;;20.59;23.07
43480;BME280;29067;35.492;-97.520;2022-10-01T04:40:42;97336.65;;;20.26;22.99
43480;BME280;29067;35.492;-97.520;2022-10-01T04:43:11;97337.14;;;20.66;22.72
43480;BME280;29067;35.492;-97.520;2022-10-01T04:45:39;97335.32;;;20.28;22.87
43480;BME280;29067;35.492;-97.520;2022-10-01T04:48:07;97332.02;;;20.29;22.84
43480;BME280;29067;35.492;-97.520;2022-10-01T04:50:34;97333.42;;;20.51;22.78
43480;BME280;29067;35.492;-97.520;2022-10-01T04:53:02;97338.07;;;20.47;22.56
43480;BME280;29067;35.492;-97.520;2022-10-01T04:55:30;97341.90;;;20.10;22.64
43480;BME280;29067;35.492;-97.520;2022-10-01T04:57:58;97343.58;;;19.20;23.54
43480;BME280;29067;35.492;-97.520;2022-10-01T05:00:26;97348.36;;;19.80;23.31
43480;BME280;29067;35.492;-97.520;2022-10-01T05:02:54;97356.98;;;19.84;23.60
43480;BME280;29067;35.492;-97.520;2022-10-01T05:05:23;97358.05;;;20.39;23.04
43480;BME280;29067;35.492;-97.520;2022-10-01T05:07:51;97364.30;;;19.57;23.65
43480;BME280;29067;35.492;-97.520;2022-10-01T05:10:21;97368.52;;;20.08;23.32
43480;BME280;29067;35.492;-97.520;2022-10-01T05:12:49;97372.38;;;18.89;23.97
43480;BME280;29067;35.492;-97.520;2022-10-01T05:15:17;97369.90;;;20.12;23.79
43480;BME280;29067;35.492;-97.520;2022-10-01T05:17:46;97373.70;;;18.79;24.38
43480;BME280;29067;35.492;-97.520;2022-10-01T05:20:16;97372.98;;;19.93;23.51
43480;BME280;29067;35.492;-97.520;2022-10-01T05:22:45;97370.59;;;19.97;23.98
43480;BME280;29067;35.492;-97.520;2022-10-01T05:25:14;97370.81;;;19.21;24.27
43480;BME280;29067;35.492;-97.520;2022-10-01T05:27:42;97370.43;;;19.90;24.21
43480;BME280;29067;35.492;-97.520;2022-10-01T05:30:11;97368.48;;;18.88;24.87
43480;BME280;29067;35.492;-97.520;2022-10-01T05:32:40;97365.89;;;18.78;24.96
43480;BME280;29067;35.492;-97.520;2022-10-01T05:35:08;97363.00;;;19.94;24.16
43480;BME280;29067;35.492;-97.520;2022-10-01T05:37:36;97367.51;;;19.75;24.16
43480;BME280;29067;35.492;-97.520;2022-10-01T05:40:04;97366.05;;;18.72;24.48
43480;BME280;29067;35.492;-97.520;2022-10-01T05:42:32;97367.49;;;19.52;24.07
43480;BME280;29067;35.492;-97.520;2022-10-01T05:45:00;97367.74;;;19.80;24.07
43480;BME280;29067;35.492;-97.520;2022-10-01T05:47:28;97364.60;;;19.33;24.39
43480;BME280;29067;35.492;-97.520;2022-10-01T05:49:56;97362.37;;;20.82;23.69
43480;BME280;29067;35.492;-97.520;2022-10-01T05:52:24;97362.11;;;20.38;23.94
43480;BME280;29067;35.492;-97.520;2022-10-01T05:54:51;97361.02;;;19.57;24.14
43480;BME280;29067;35.492;-97.520;2022-10-01T05:57:19;97361.71;;;19.45;24.15
43480;BME280;29067;35.492;-97.520;2022-10-01T05:59:47;97359.68;;;19.55;24.13
43480;BME280;29067;35.492;-97.520;2022-10-01T06:02:15;97362.10;;;19.61;23.98
43480;BME280;29067;35.492;-97.520;2022-10-01T06:04:43;97362.33;;;20.08;23.85
43480;BME280;29067;35.492;-97.520;2022-10-01T06:07:11;97364.99;;;19.24;23.87
43480;BME280;29067;35.492;-97.520;2022-10-01T06:09:39;97363.53;;;19.48;24.27
43480;BME280;29067;35.492;-97.520;2022-10-01T06:12:06;97360.59;;;20.32;23.72
43480;BME280;29067;35.492;-97.520;2022-10-01T06:14:35;97359.73;;;19.91;23.66
43480;BME280;29067;35.492;-97.520;2022-10-01T06:17:02;97358.02;;;19.82;23.84
43480;BME280;29067;35.492;-97.520;2022-10-01T06:19:30;97357.80;;;19.75;23.99
43480;BME280;29067;35.492;-97.520;2022-10-01T06:21:58;97361.41;;;19.24;24.00
43480;BME280;29067;35.492;-97.520;2022-10-01T06:24:26;97362.99;;;20.23;23.92
43480;BME280;29067;35.492;-97.520;2022-10-01T06:26:54;97366.05;;;19.26;24.27
43480;BME280;29067;35.492;-97.520;2022-10-01T06:29:21;97366.67;;;19.13;24.53
43480;BME280;29067;35.492;-97.520;2022-10-01T06:31:49;97368.44;;;19.98;24.03
43480;BME280;29067;35.492;-97.520;2022-10-01T06:34:17;97367.08;;;19.46;23.92
43480;BME280;29067;35.492;-97.520;2022-10-01T06:36:45;97367.92;;;19.83;24.08
43480;BME280;29067;35.492;-97.520;2022-10-01T06:39:12;97366.72;;;18.65;23.82
43480;BME280;29067;35.492;-97.520;2022-10-01T06:41:41;97364.33;;;19.47;23.61
43480;BME280;29067;35.492;-97.520;2022-10-01T06:44:08;97361.40;;;19.73;23.34
43480;BME280;29067;35.492;-97.520;2022-10-01T06:46:37;97361.39;;;19.14;23.71
43480;BME280;29067;35.492;-97.520;2022-10-01T06:49:04;97360.20;;;19.70;23.55
43480;BME280;29067;35.492;-97.520;2022-10-01T06:51:32;97361.81;;;18.14;23.85
43480;BME280;29067;35.492;-97.520;2022-10-01T06:54:00;97361.87;;;19.49;22.57
43480;BME280;29067;35.492;-97.520;2022-10-01T06:56:28;97362.13;;;19.73;22.47
43480;BME280;29067;35.492;-97.520;2022-10-01T06:58:55;97362.46;;;19.27;22.18
43480;BME280;29067;35.492;-97.520;2022-10-01T07:01:23;97363.40;;;19.71;22.10
43480;BME280;29067;35.492;-97.520;2022-10-01T07:03:51;97365.44;;;18.60;22.37
43480;BME280;29067;35.492;-97.520;2022-10-01T07:06:19;97362.74;;;18.67;22.67
43480;BME280;29067;35.492;-97.520;2022-10-01T07:08:48;97364.04;;;18.01;22.84
43480;BME280;29067;35.492;-97.520;2022-10-01T07:11:16;97358.69;;;18.77;22.92
43480;BME280;29067;35.492;-97.520;2022-10-01T07:13:43;97355.74;;;18.43;23.26
43480;BME280;29067;35.492;-97.520;2022-10-01T07:16:12;97353.12;;;19.19;22.59
43480;BME280;29067;35.492;-97.520;2022-10-01T07:18:40;97351.92;;;18.92;22.60
43480;BME280;29067;35.492;-97.520;2022-10-01T07:21:08;97352.76;;;18.22;22.90
43480;BME280;29067;35.492;-97.520;2022-10-01T07:23:35;97352.24;;;19.20;22.85
43480;BME280;29067;35.492;-97.520;2022-10-01T07:26:04;97349.21;;;19.18;22.54
43480;BME280;29067;35.492;-97.520;2022-10-01T07:28:32;97345.70;;;19.52;22.92
43480;BME280;29067;35.492;-97.520;2022-10-01T07:31:02;97346.06;;;18.66;22.52
43480;BME280;29067;35.492;-97.520;2022-10-01T07:33:30;97346.73;;;18.55;23.02
43480;BME280;29067;35.492;-97.520;2022-10-01T07:36:00;97346.45;;;18.61;22.17
43480;BME280;29067;35.492;-97.520;2022-10-01T07:38:28;97346.97;;;19.87;22.54
43480;BME280;29067;35.492;-97.520;2022-10-01T07:40:56;97352.05;;;18.96;22.52
43480;BME280;29067;35.492;-97.520;2022-10-01T07:43:24;97353.72;;;19.21;22.11
43480;BME280;29067;35.492;-97.520;2022-10-01T07:45:51;97352.37;;;18.65;22.13
43480;BME280;29067;35.492;-97.520;2022-10-01T07:48:19;97355.33;;;18.54;22.60
43480;BME280;29067;35.492;-97.520;2022-10-01T07:50:47;97352.70;;;19.45;22.48
43480;BME280;29067;35.492;-97.520;2022-10-01T07:53:15;97359.06;;;18.58;22.96
43480;BME280;29067;35.492;-97.520;2022-10-01T07:55:43;97354.63;;;19.14;22.90
43480;BME280;29067;35.492;-97.520;2022-10-01T07:58:11;97356.10;;;19.56;22.33
43480;BME280;29067;35.492;-97.520;2022-10-01T08:00:39;97356.66;;;20.40;22.31
43480;BME280;29067;35.492;-97.520;2022-10-01T08:03:07;97359.35;;;19.29;22.61
43480;BME280;29067;35.492;-97.520;2022-10-01T08:05:35;97365.04;;;18.04;23.14
43480;BME280;29067;35.492;-97.520;2022-10-01T08:08:06;97364.35;;;19.18;22.59
43480;BME280;29067;35.492;-97.520;2022-10-01T08:10:35;97356.87;;;19.77;22.42
43480;BME280;29067;35.492;-97.520;2022-10-01T08:13:07;97352.58;;;19.58;23.12
43480;BME280;29067;35.492;-97.520;2022-10-01T08:15:35;97350.45;;;18.99;22.94
43480;BME280;29067;35.492;-97.520;2022-10-01T08:18:03;97348.67;;;19.29;22.90
43480;BME280;29067;35.492;-97.520;2022-10-01T08:20:32;97349.02;;;19.47;22.72
43480;BME280;29067;35.492;-97.520;2022-10-01T08:23:04;97352.21;;;17.96;23.08
43480;BME280;29067;35.492;-97.520;2022-10-01T08:25:33;97359.45;;;18.26;23.15
43480;BME280;29067;35.492;-97.520;2022-10-01T08:28:01;97358.90;;;19.41;22.95
43480;BME280;29067;35.492;-97.520;2022-10-01T08:30:30;97367.11;;;18.12;22.81
43480;BME280;29067;35.492;-97.520;2022-10-01T08:32:59;97365.77;;;18.96;22.55
43480;BME280;29067;35.492;-97.520;2022-10-01T08:35:29;97368.31;;;18.42;23.30
43480;BME280;29067;35.492;-97.520;2022-10-01T08:38:00;97371.36;;;17.94;23.88
43480;BME280;29067;35.492;-97.520;2022-10-01T08:40:28;97363.74;;;18.49;23.59
43480;BME280;29067;35.492;-97.520;2022-10-01T08:43:00;97365.84;;;18.41;24.21
43480;BME280;29067;35.492;-97.520;2022-10-01T08:45:35;97369.62;;;17.72;24.76
43480;BME280;29067;35.492;-97.520;2022-10-01T08:48:12;97368.51;;;17.47;24.88
43480;BME280;29067;35.492;-97.520;2022-10-01T08:50:48;97367.13;;;17.74;24.76
43480;BME280;29067;35.492;-97.520;2022-10-01T08:53:30;97361.83;;;18.95;24.25
43480;BME280;29067;35.492;-97.520;2022-10-01T08:56:01;97356.48;;;19.73;23.46
43480;BME280;29067;35.492;-97.520;2022-10-01T08:58:36;97364.85;;;16.87;25.51
43480;BME280;29067;35.492;-97.520;2022-10-01T09:01:10;97360.38;;;18.85;24.82
43480;BME280;29067;35.492;-97.520;2022-10-01T09:03:38;97363.42;;;16.62;25.67
43480;BME280;29067;35.492;-97.520;2022-10-01T09:06:17;97366.11;;;16.86;26.29
43480;BME280;29067;35.492;-97.520;2022-10-01T09:08:56;97361.53;;;18.87;24.99
43480;BME280;29067;35.492;-97.520;2022-10-01T09:11:39;97363.86;;;19.31;24.79
43480;BME280;29067;35.492;-97.520;2022-10-01T09:14:17;97370.94;;;18.16;25.81
43480;BME280;29067;35.492;-97.520;2022-10-01T09:16:53;97373.06;;;17.91;26.72
43480;BME280;29067;35.492;-97.520;2022-10-01T09:19:40;97374.98;;;16.35;27.65
43480;BME280;29067;35.492;-97.520;2022-10-01T09:22:18;97378.66;;;17.57;26.91
43480;BME280;29067;35.492;-97.520;2022-10-01T09:24:53;97379.71;;;17.23;27.05
43480;BME280;29067;35.492;-97.520;2022-10-01T09:27:25;97382.69;;;17.23;27.52
43480;BME280;29067;35.492;-97.520;2022-10-01T09:29:57;97383.66;;;18.09;27.27
43480;BME280;29067;35.492;-97.520;2022-10-01T09:32:31;97385.40;;;17.70;27.54
43480;BME280;29067;35.492;-97.520;2022-10-01T09:35:06;97385.79;;;18.19;26.87
43480;BME280;29067;35.492;-97.520;2022-10-01T09:37:40;97386.42;;;17.66;27.42
43480;BME280;29067;35.492;-97.520;2022-10-01T09:40:19;97388.25;;;16.69;28.14
43480;BME280;29067;35.492;-97.520;2022-10-01T09:42:51;97390.63;;;17.00;28.00
43480;BME280;29067;35.492;-97.520;2022-10-01T09:45:20;97390.75;;;17.00;28.56
43480;BME280;29067;35.492;-97.520;2022-10-01T09:47:52;97391.46;;;17.82;27.39
43480;BME280;29067;35.492;-97.520;2022-10-01T09:50:29;97388.07;;;17.28;27.88
43480;BME280;29067;35.492;-97.520;2022-10-01T09:52:59;97392.73;;;17.97;27.29
43480;BME280;29067;35.492;-97.520;2022-10-01T09:55:31;97394.25;;;17.07;28.02
43480;BME280;29067;35.492;-97.520;2022-10-01T09:58:03;97397.90;;;16.58;28.68
43480;BME280;29067;35.492;-97.520;2022-10-01T10:00:36;97398.13;;;17.63;28.04
43480;BME280;29067;35.492;-97.520;2022-10-01T10:03:04;97406.48;;;16.43;28.70
43480;BME280;29067;35.492;-97.520;2022-10-01T10:05:40;97408.64;;;16.88;28.86
43480;BME280;29067;35.492;-97.520;2022-10-01T10:08:12;97408.10;;;16.83;28.60
43480;BME280;29067;35.492;-97.520;2022-10-01T10:10:50;97406.91;;;16.22;28.86
43480;BME280;29067;35.492;-97.520;2022-10-01T10:13:30;97413.41;;;16.14;28.90
43480;BME280;29067;35.492;-97.520;2022-10-01T10:15:59;97416.98;;;15.48;29.45
43480;BME280;29067;35.492;-97.520;2022-10-01T10:18:30;97418.80;;;15.64;29.64
43480;BME280;29067;35.492;-97.520;2022-10-01T10:21:03;97424.01;;;14.70;30.59
43480;BME280;29067;35.492;-97.520;2022-10-01T10:23:32;97427.24;;;16.52;30.00
43480;BME280;29067;35.492;-97.520;2022-10-01T10:26:01;97429.97;;;16.79;29.99
43480;BME280;29067;35.492;-97.520;2022-10-01T10:28:38;97430.54;;;16.63;29.43
43480;BME280;29067;35.492;-97.520;2022-10-01T10:31:13;97438.72;;;16.74;30.30
43480;BME280;29067;35.492;-97.520;2022-10-01T10:33:47;97444.39;;;16.16;31.23
43480;BME280;29067;35.492;-97.520;2022-10-01T10:36:17;97449.76;;;15.73;30.97
43480;BME280;29067;35.492;-97.520;2022-10-01T10:38:47;97456.39;;;14.95;32.53
43480;BME280;29067;35.492;-97.520;2022-10-01T10:41:19;97461.17;;;14.98;32.30
43480;BME280;29067;35.492;-97.520;2022-10-01T10:43:48;97465.58;;;16.00;32.60
43480;BME280;29067;35.492;-97.520;2022-10-01T10:46:25;97468.20;;;15.60;32.64
43480;BME280;29067;35.492;-97.520;2022-10-01T10:48:59;97470.87;;;16.00;32.40
43480;BME280;29067;35.492;-97.520;2022-10-01T10:51:28;97474.23;;;16.11;32.28
43480;BME280;29067;35.492;-97.520;2022-10-01T10:53:56;97473.24;;;15.41;33.17
43480;BME280;29067;35.492;-97.520;2022-10-01T10:56:24;97476.41;;;13.97;33.99
43480;BME280;29067;35.492;-97.520;2022-10-01T10:58:52;97476.86;;;14.36;33.55
43480;BME280;29067;35.492;-97.520;2022-10-01T11:03:03;97481.87;;;16.39;32.15
43480;BME280;29067;35.492;-97.520;2022-10-01T11:05:38;97481.64;;;16.61;31.66
43480;BME280;29067;35.492;-97.520;2022-10-01T11:08:11;97486.96;;;14.42;33.91
43480;BME280;29067;35.492;-97.520;2022-10-01T11:10:46;97486.48;;;14.99;33.99
43480;BME280;29067;35.492;-97.520;2022-10-01T11:13:32;97487.96;;;14.22;34.97
43480;BME280;29067;35.492;-97.520;2022-10-01T11:16:19;97488.98;;;15.16;35.25
43480;BME280;29067;35.492;-97.520;2022-10-01T11:19:00;97493.92;;;14.19;35.90
43480;BME280;29067;35.492;-97.520;2022-10-01T11:21:42;97492.39;;;14.20;35.28
43480;BME280;29067;35.492;-97.520;2022-10-01T11:24:24;97495.60;;;15.13;35.93
43480;BME280;29067;35.492;-97.520;2022-10-01T11:27:00;97504.58;;;14.26;36.35
43480;BME280;29067;35.492;-97.520;2022-10-01T11:29:41;97499.04;;;15.65;35.19
43480;BME280;29067;35.492;-97.520;2022-10-01T11:32:20;97499.37;;;16.48;33.89
43480;BME280;29067;35.492;-97.520;2022-10-01T11:35:30;97502.09;;;16.06;34.24
43480;BME280;29067;35.492;-97.520;2022-10-01T11:38:20;97508.48;;;14.90;35.19
43480;BME280;29067;35.492;-97.520;2022-10-01T11:40:58;97513.73;;;14.27;36.24
43480;BME280;29067;35.492;-97.520;2022-10-01T11:43:33;97512.43;;;15.98;34.56
43480;BME280;29067;35.492;-97.520;2022-10-01T11:46:09;97516.19;;;15.91;35.51
43480;BME280;29067;35.492;-97.520;2022-10-01T11:48:42;97521.25;;;13.49;37.82
43480;BME280;29067;35.492;-97.520;2022-10-01T11:51:15;97518.91;;;15.40;36.69
43480;BME280;29067;35.492;-97.520;2022-10-01T11:53:47;97523.79;;;14.77;38.03
43480;BME280;29067;35.492;-97.520;2022-10-01T11:56:19;97529.65;;;13.89;40.13
43480;BME280;29067;35.492;-97.520;2022-10-01T11:58:54;97527.08;;;15.17;37.76
43480;BME280;29067;35.492;-97.520;2022-10-01T12:01:32;97531.07;;;14.42;38.13
43480;BME280;29067;35.492;-97.520;2022-10-01T12:04:10;97530.67;;;15.14;37.10
43480;BME280;29067;35.492;-97.520;2022-10-01T12:06:47;97533.13;;;15.58;36.37
43480;BME280;29067;35.492;-97.520;2022-10-01T12:09:23;97546.57;;;14.34;37.82
43480;BME280;29067;35.492;-97.520;2022-10-01T12:11:59;97550.09;;;15.05;37.09
43480;BME280;29067;35.492;-97.520;2022-10-01T12:14:34;97549.05;;;15.39;36.80
43480;BME280;29067;35.492;-97.520;2022-10-01T12:17:15;97556.23;;;14.99;37.47
43480;BME280;29067;35.492;-97.520;2022-10-01T12:19:49;97558.01;;;14.09;37.71
43480;BME280;29067;35.492;-97.520;2022-10-01T12:22:23;97560.01;;;14.61;37.40
43480;BME280;29067;35.492;-97.520;2022-10-01T12:24:52;97560.03;;;15.01;37.24
43480;BME280;29067;35.492;-97.520;2022-10-01T12:27:32;97557.05;;;15.62;35.47
43480;BME280;29067;35.492;-97.520;2022-10-01T12:30:06;97567.59;;;14.74;36.98
43480;BME280;29067;35.492;-97.520;2022-10-01T12:32:48;97564.27;;;15.32;36.27
43480;BME280;29067;35.492;-97.520;2022-10-01T12:35:32;97573.53;;;13.50;36.66
43480;BME280;29067;35.492;-97.520;2022-10-01T12:38:12;97570.66;;;15.01;36.54
43480;BME280;29067;35.492;-97.520;2022-10-01T12:40:46;97571.35;;;16.17;35.45
43480;BME280;29067;35.492;-97.520;2022-10-01T12:43:30;97573.49;;;15.57;35.44
43480;BME280;29067;35.492;-97.520;2022-10-01T12:46:10;97581.69;;;14.86;36.49
43480;BME280;29067;35.492;-97.520;2022-10-01T12:48:47;97586.66;;;14.96;36.74
43480;BME280;29067;35.492;-97.520;2022-10-01T12:51:36;97585.08;;;16.84;35.28
43480;BME280;29067;35.492;-97.520;2022-10-01T12:54:22;97588.32;;;16.83;35.65
43480;BME280;29067;35.492;-97.520;2022-10-01T12:56:58;97592.09;;;15.71;36.63
43480;BME280;29067;35.492;-97.520;2022-10-01T12:59:37;97596.66;;;15.51;36.75
43480;BME280;29067;35.492;-97.520;2022-10-01T13:02:23;97597.98;;;15.99;36.93
43480;BME280;29067;35.492;-97.520;2022-10-01T13:05:14;97604.04;;;14.87;38.19